Time;durP1;ratioP1;P1;durP2;ratioP2;P2;SDS_P1;SDS_P2;PMS_P1;PMS_P2;Temp;Humidity;BMP_temperature;BMP_pressure;BME280_temperature;BME280_humidity;BME280_pressure;Samples;Min_cycle;Max_cycle;Signal;HPM_P1;HPM_P2
2023/12/06 00:00:20;;;;;;;25.77;10.70;;;;;;;3.24;90.70;97685.88;4409699;32;20106;-77
2023/12/06 00:02:49;;;;;;;38.22;15.95;;;;;;;2.24;93.60;97682.53;4395588;32;20118;-77
2023/12/06 00:05:17;;;;;;;36.20;13.88;;;;;;;2.47;95.28;97674.53;4395812;32;20094;-77
2023/12/06 00:07:44;;;;;;;30.58;12.63;;;;;;;2.09;97.77;97689.53;4409447;32;20078;-77
2023/12/06 00:10:11;;;;;;;39.03;16.80;;;;;;;2.21;97.77;97681.72;4409000;32;20204;-77
2023/12/06 00:12:38;;;;;;;24.67;10.80;;;;;;;2.06;99.21;97677.72;4409444;32;20103;-77
2023/12/06 00:15:06;;;;;;;34.65;12.95;;;;;;;1.84;100.00;97674.63;4409183;32;20098;-77
2023/12/06 00:17:33;;;;;;;34.40;14.32;;;;;;;1.71;100.00;97668.87;4408953;32;20077;-77
2023/12/06 00:20:00;;;;;;;23.92;9.80;;;;;;;1.61;100.00;97671.56;4409369;32;20487;-77
2023/12/06 00:22:27;;;;;;;33.10;11.55;;;;;;;1.15;100.00;97669.56;4395590;32;20102;-77
2023/12/06 00:24:54;;;;;;;36.15;13.62;;;;;;;0.76;100.00;97660.69;4408527;32;20085;-77
2023/12/06 00:27:21;;;;;;;35.85;13.20;;;;;;;0.82;100.00;97656.38;4409022;32;20078;-77
2023/12/06 00:29:49;;;;;;;28.10;11.77;;;;;;;1.07;100.00;97666.28;4409125;32;20819;-77
2023/12/06 00:32:16;;;;;;;32.22;13.40;;;;;;;0.89;100.00;97651.25;4408727;32;20515;-77
2023/12/06 00:34:43;;;;;;;32.92;12.88;;;;;;;0.91;100.00;97654.59;4408980;32;20144;-77
2023/12/06 00:37:10;;;;;;;24.75;10.68;;;;;;;0.73;100.00;97646.31;4409023;32;20132;-77
2023/12/06 00:39:37;;;;;;;34.72;15.25;;;;;;;0.84;100.00;97651.28;4408706;32;20160;-77
2023/12/06 00:42:04;;;;;;;32.40;13.65;;;;;;;0.54;100.00;97642.28;4408893;32;20107;-77
2023/12/06 00:44:31;;;;;;;35.42;13.90;;;;;;;0.84;100.00;97644.50;4408938;32;20086;-77
2023/12/06 00:46:58;;;;;;;32.05;13.15;;;;;;;0.83;100.00;97641.97;4408493;32;20104;-77
2023/12/06 00:49:25;;;;;;;30.05;13.82;;;;;;;0.70;100.00;97642.97;4408878;32;20094;-77
2023/12/06 00:51:52;;;;;;;32.67;11.95;;;;;;;0.62;100.00;97635.41;4408553;32;20106;-77
2023/12/06 00:54:19;;;;;;;30.48;11.77;;;;;;;0.58;100.00;97644.78;4395193;32;20104;-77
2023/12/06 00:56:46;;;;;;;33.72;13.07;;;;;;;1.20;100.00;97642.41;4408683;32;20081;-77
2023/12/06 00:59:13;;;;;;;31.23;11.95;;;;;;;1.13;100.00;97640.81;4408648;32;20573;-77
2023/12/06 01:01:40;;;;;;;31.25;13.23;;;;;;;0.66;100.00;97634.56;4408803;32;20563;-78
2023/12/06 01:04:07;;;;;;;23.45;8.95;;;;;;;0.75;100.00;97638.69;4409575;32;20163;-78
2023/12/06 01:06:35;;;;;;;37.20;13.93;;;;;;;0.92;100.00;97636.81;4410486;32;20177;-78
2023/12/06 01:09:03;;;;;;;47.28;16.20;;;;;;;1.12;100.00;97645.03;4410880;32;20099;-78
2023/12/06 01:11:30;;;;;;;36.08;13.27;;;;;;;1.02;100.00;97635.84;4410840;32;20145;-78
2023/12/06 01:13:57;;;;;;;40.12;16.08;;;;;;;1.36;100.00;97636.28;4410552;32;20145;-78
2023/12/06 01:16:24;;;;;;;31.02;11.55;;;;;;;1.72;100.00;97637.50;4410593;32;20094;-78
2023/12/06 01:18:51;;;;;;;31.75;11.65;;;;;;;1.22;100.00;97637.31;4410968;32;20117;-78
2023/12/06 01:21:18;;;;;;;34.13;12.37;;;;;;;1.16;100.00;97630.59;4410484;32;20090;-78
2023/12/06 01:23:45;;;;;;;33.92;11.55;;;;;;;1.48;100.00;97632.72;4410504;32;20113;-78
2023/12/06 01:26:13;;;;;;;31.48;10.55;;;;;;;1.44;100.00;97637.03;4410833;32;20070;-78
2023/12/06 01:28:41;;;;;;;35.90;13.23;;;;;;;1.45;100.00;97643.78;4410391;32;20427;-78
2023/12/06 01:31:08;;;;;;;32.42;11.95;;;;;;;1.38;100.00;97633.69;4410660;32;20114;-78
2023/12/06 01:33:35;;;;;;;46.00;17.15;;;;;;;2.19;100.00;97630.84;4410758;32;20078;-78
2023/12/06 01:36:03;;;;;;;42.45;15.82;;;;;;;1.86;100.00;97634.75;4410253;32;20150;-78
2023/12/06 01:38:29;;;;;;;32.35;11.95;;;;;;;2.41;100.00;97641.50;4410741;32;20116;-78
2023/12/06 01:40:56;;;;;;;35.17;13.43;;;;;;;2.57;100.00;97644.66;4410559;32;20202;-78
2023/12/06 01:43:23;;;;;;;41.25;15.73;;;;;;;3.00;99.27;97641.31;4410472;32;20160;-78
2023/12/06 01:45:52;;;;;;;43.20;16.17;;;;;;;2.81;100.00;97645.91;4410551;32;20081;-78
2023/12/06 01:48:19;;;;;;;42.00;14.63;;;;;;;3.34;95.73;97651.69;4410248;32;20105;-78
2023/12/06 01:50:46;;;;;;;41.60;14.80;;;;;;;3.07;96.22;97653.06;4397035;32;20102;-78
2023/12/06 01:53:13;;;;;;;37.05;13.85;;;;;;;3.28;97.60;97654.34;4410672;32;20100;-78
2023/12/06 01:55:41;;;;;;;38.67;14.50;;;;;;;3.45;96.57;97649.75;4410098;32;20086;-78
2023/12/06 01:58:08;;;;;;;37.00;14.70;;;;;;;4.05;92.48;97654.41;4410527;32;20101;-78
2023/12/06 02:00:35;;;;;;;29.00;12.25;;;;;;;3.94;90.14;97653.81;4410681;32;20090;-78
2023/12/06 02:03:02;;;;;;;32.67;13.15;;;;;;;4.16;89.86;97654.16;4410262;32;20184;-78
2023/12/06 02:05:29;;;;;;;33.08;13.57;;;;;;;4.03;90.59;97659.50;4410253;32;20149;-78
2023/12/06 02:07:56;;;;;;;32.83;13.48;;;;;;;4.20;88.79;97653.19;4410392;32;20471;-79
2023/12/06 02:10:23;;;;;;;28.73;11.73;;;;;;;4.48;85.82;97654.22;4410151;32;20152;-79
2023/12/06 02:12:50;;;;;;;30.35;12.73;;;;;;;4.23;87.86;97656.50;4396872;32;20453;-79
2023/12/06 02:15:18;;;;;;;33.03;14.05;;;;;;;4.10;86.58;97654.28;4409580;32;20078;-79
2023/12/06 02:17:45;;;;;;;30.67;11.93;;;;;;;4.12;88.23;97657.62;4410063;32;20162;-79
2023/12/06 02:20:12;;;;;;;27.65;11.93;;;;;;;4.71;84.07;97643.41;4410450;32;20160;-79
2023/12/06 02:22:40;;;;;;;32.58;12.48;;;;;;;4.84;84.03;97646.47;4410440;32;20098;-79
2023/12/06 02:25:12;;;;;;;28.65;11.70;;;;;;;4.19;86.34;97642.16;4396017;32;20116;-79
2023/12/06 02:27:43;;;;;;;30.77;12.60;;;;;;;4.23;86.93;97637.78;4396579;32;20518;-79
2023/12/06 02:30:11;;;;;;;32.30;13.35;;;;;;;4.26;85.45;97643.69;4410069;32;20089;-79
2023/12/06 02:32:38;;;;;;;30.00;11.38;;;;;;;3.91;85.78;97641.09;4396631;32;20168;-79
2023/12/06 02:35:11;;;;;;;29.42;12.37;;;;;;;4.89;83.37;97640.38;4410219;32;20073;-79
2023/12/06 02:37:40;;;;;;;30.77;12.60;;;;;;;4.29;86.49;97643.59;4396314;32;20110;-79
2023/12/06 02:40:09;;;;;;;32.40;13.07;;;;;;;4.52;84.41;97648.16;4396696;32;20130;-79
2023/12/06 02:42:36;;;;;;;26.17;10.35;;;;;;;4.64;83.01;97636.78;4396773;32;20760;-79
2023/12/06 02:45:04;;;;;;;29.75;12.85;;;;;;;4.50;84.07;97637.13;4409817;32;20152;-79
2023/12/06 02:47:31;;;;;;;28.60;11.90;;;;;;;3.84;87.45;97648.06;4410255;32;20161;-79
2023/12/06 02:49:58;;;;;;;24.58;9.25;;;;;;;4.51;84.06;97645.63;4410237;32;20366;-78
2023/12/06 02:52:25;;;;;;;29.48;11.40;;;;;;;4.71;82.23;97637.47;4409854;32;20169;-79
2023/12/06 02:54:52;;;;;;;28.67;10.98;;;;;;;4.76;80.87;97641.56;4409965;32;20086;-79
2023/12/06 02:57:19;;;;;;;26.23;12.00;;;;;;;4.87;81.51;97641.28;4410171;32;20102;-79
2023/12/06 02:59:46;;;;;;;25.55;11.07;;;;;;;4.44;84.03;97646.66;4409850;32;20094;-79
2023/12/06 03:02:13;;;;;;;25.52;11.27;;;;;;;4.60;83.60;97643.69;4410188;32;20169;-79
2023/12/06 03:04:40;;;;;;;26.67;10.15;;;;;;;3.99;83.10;97639.22;4410124;32;20078;-79
2023/12/06 03:07:07;;;;;;;25.05;10.25;;;;;;;4.24;86.31;97647.13;4409702;32;20507;-79
2023/12/06 03:09:35;;;;;;;24.52;9.95;;;;;;;4.85;81.58;97640.50;4410074;32;20102;-79
2023/12/06 03:12:02;;;;;;;19.85;7.85;;;;;;;4.23;84.00;97643.75;4396556;32;20111;-79
2023/12/06 03:14:29;;;;;;;12.60;5.43;;;;;;;4.78;82.86;97636.41;4409785;32;20397;-79
2023/12/06 03:16:57;;;;;;;27.08;10.90;;;;;;;4.29;84.53;97630.00;4410024;32;20243;-79
2023/12/06 03:19:23;;;;;;;24.98;11.30;;;;;;;3.61;89.98;97632.41;4409717;32;20153;-79
2023/12/06 03:21:50;;;;;;;24.60;9.55;;;;;;;4.00;85.45;97633.22;4410083;32;20104;-79
2023/12/06 03:24:17;;;;;;;27.05;11.60;;;;;;;4.43;84.14;97635.59;4409316;32;20149;-79
2023/12/06 03:26:44;;;;;;;24.73;10.63;;;;;;;4.65;83.18;97631.63;4407785;32;20098;-79
2023/12/06 03:29:11;;;;;;;23.55;9.38;;;;;;;4.48;82.69;97627.84;4408442;32;20098;-79
2023/12/06 03:31:40;;;;;;;23.30;9.93;;;;;;;3.44;87.49;97632.78;4408889;32;20569;-79
2023/12/06 03:34:07;;;;;;;25.12;10.38;;;;;;;3.37;89.97;97621.84;4408417;32;20436;-79
2023/12/06 03:36:34;;;;;;;24.17;9.63;;;;;;;2.76;94.93;97624.75;4408772;32;20109;-79
2023/12/06 03:39:01;;;;;;;21.00;8.48;;;;;;;2.29;98.42;97623.91;4408832;32;20109;-79
2023/12/06 03:41:28;;;;;;;24.55;8.38;;;;;;;2.07;100.00;97620.84;4408444;32;20074;-80
2023/12/06 03:43:55;;;;;;;24.48;9.35;;;;;;;2.59;97.79;97619.97;4408504;32;20086;-80
2023/12/06 03:46:29;;;;;;;27.65;10.30;;;;;;;2.57;99.41;97616.63;4408760;32;20110;-80
2023/12/06 03:48:56;;;;;;;19.85;6.87;;;;;;;2.97;96.51;97623.50;4394678;32;20102;-79
2023/12/06 03:51:23;;;;;;;27.70;9.35;;;;;;;2.27;99.91;97616.28;4408715;32;20425;-79
2023/12/06 03:53:50;;;;;;;26.85;9.18;;;;;;;2.15;100.00;97619.03;4408662;32;20163;-79
2023/12/06 03:56:17;;;;;;;23.67;9.32;;;;;;;2.15;100.00;97620.75;4408260;32;20121;-80
2023/12/06 03:58:44;;;;;;;25.05;9.65;;;;;;;2.15;100.00;97623.28;4408671;32;20112;-80
2023/12/06 04:01:12;;;;;;;24.73;10.65;;;;;;;2.62;100.00;97623.31;4408667;32;20073;-80
2023/12/06 04:03:41;;;;;;;29.08;11.73;;;;;;;2.26;100.00;97631.59;4408130;32;20086;-80
2023/12/06 04:06:08;;;;;;;27.33;11.02;;;;;;;2.67;99.64;97630.87;4408501;32;20124;-80
2023/12/06 04:08:35;;;;;;;24.90;9.05;;;;;;;3.03;96.05;97629.34;4408004;32;20086;-80
2023/12/06 04:11:02;;;;;;;25.25;10.95;;;;;;;2.76;96.98;97630.69;4408601;32;20162;-80
2023/12/06 04:13:29;;;;;;;25.30;10.43;;;;;;;3.12;95.71;97636.81;4408426;32;20104;-80
2023/12/06 04:15:56;;;;;;;26.70;9.88;;;;;;;3.10;95.96;97640.28;4407965;32;20111;-80
2023/12/06 04:18:23;;;;;;;26.67;11.25;;;;;;;3.56;92.89;97640.16;4408403;32;20580;-80
2023/12/06 04:20:51;;;;;;;23.52;9.63;;;;;;;3.05;94.20;97642.91;4408437;32;20097;-79
2023/12/06 04:23:18;;;;;;;24.55;10.15;;;;;;;3.80;91.64;97643.03;4407992;32;20129;-81
2023/12/06 04:25:47;;;;;;;26.02;10.95;;;;;;;3.54;91.83;97641.06;4403942;32;20113;-80
2023/12/06 04:28:14;;;;;;;28.10;11.35;;;;;;;3.64;91.52;97642.56;4409106;32;20465;-80
2023/12/06 04:30:41;;;;;;;25.85;11.65;;;;;;;3.91;89.81;97651.31;4408867;32;20459;-81
2023/12/06 04:33:08;;;;;;;28.33;12.82;;;;;;;3.49;92.70;97647.09;4409112;32;20575;-80
2023/12/06 04:35:35;;;;;;;25.52;10.57;;;;;;;3.77;90.15;97649.91;4395307;32;20117;-80
2023/12/06 04:38:03;;;;;;;26.87;11.30;;;;;;;3.77;88.31;97652.47;4408773;32;20098;-81
2023/12/06 04:40:30;;;;;;;27.00;10.25;;;;;;;4.31;87.70;97643.56;4411082;32;20082;-80
2023/12/06 04:42:57;;;;;;;27.30;11.07;;;;;;;3.38;91.46;97648.19;4411124;32;20172;-80
2023/12/06 04:45:24;;;;;;;24.20;10.43;;;;;;;4.24;88.52;97644.56;4410672;32;20102;-81
2023/12/06 04:47:51;;;;;;;25.95;10.90;;;;;;;3.32;93.43;97645.78;4411011;32;20165;-81
2023/12/06 04:50:18;;;;;;;25.60;9.40;;;;;;;3.24;90.76;97653.56;4410987;32;20101;-81
2023/12/06 04:52:45;;;;;;;18.98;7.65;;;;;;;3.10;95.25;97653.00;4410737;32;20591;-81
2023/12/06 04:55:12;;;;;;;25.05;9.32;;;;;;;2.49;96.91;97651.56;4410859;32;20237;-80
2023/12/06 04:57:39;;;;;;;23.33;9.70;;;;;;;2.78;97.66;97653.63;4410585;32;20503;-81
2023/12/06 05:00:08;;;;;;;21.12;9.15;;;;;;;2.09;100.00;97652.19;4411021;32;20109;-80
2023/12/06 05:02:35;;;;;;;19.83;8.00;;;;;;;2.13;100.00;97658.94;4397379;32;20146;-80
2023/12/06 05:05:04;;;;;;;24.60;9.85;;;;;;;1.88;100.00;97645.72;4410549;32;20129;-80
2023/12/06 05:07:31;;;;;;;18.67;6.60;;;;;;;2.19;100.00;97642.72;4410879;32;20140;-80
2023/12/06 05:09:58;;;;;;;18.95;7.43;;;;;;;1.62;100.00;97645.28;4410770;32;20096;-80
2023/12/06 05:12:26;;;;;;;21.75;8.23;;;;;;;1.71;100.00;97640.91;4410609;32;20151;-81
2023/12/06 05:14:53;;;;;;;23.17;8.32;;;;;;;1.90;100.00;97646.53;4409551;32;20169;-80
2023/12/06 05:17:19;;;;;;;21.92;8.88;;;;;;;1.57;100.00;97642.78;4410864;32;20106;-80
2023/12/06 05:19:47;;;;;;;24.05;10.27;;;;;;;1.29;100.00;97644.84;4410504;32;20105;-81
2023/12/06 05:22:14;;;;;;;22.83;8.10;;;;;;;1.62;100.00;97643.56;4410552;32;20564;-80
2023/12/06 05:24:41;;;;;;;25.95;9.73;;;;;;;1.76;100.00;97637.44;4410545;32;20452;-80
2023/12/06 05:27:08;;;;;;;21.92;9.82;;;;;;;1.82;100.00;97639.91;4409258;32;20120;-81
2023/12/06 05:29:35;;;;;;;19.67;7.72;;;;;;;1.65;100.00;97642.69;4410726;32;20082;-80
2023/12/06 05:32:03;;;;;;;24.20;9.90;;;;;;;2.12;100.00;97644.50;4410805;32;20449;-80
2023/12/06 05:34:29;;;;;;;23.58;7.93;;;;;;;1.65;100.00;97638.44;4410538;32;20153;-81
2023/12/06 05:36:57;;;;;;;20.88;8.80;;;;;;;1.65;100.00;97640.13;4410797;32;20085;-81
2023/12/06 05:39:25;;;;;;;24.85;9.70;;;;;;;1.69;100.00;97636.69;4410795;32;20078;-80
2023/12/06 05:41:53;;;;;;;24.08;6.55;;;;;;;1.91;100.00;97644.84;4410341;32;20089;-81
2023/12/06 05:44:20;;;;;;;27.42;8.75;;;;;;;1.92;100.00;97638.91;4410614;32;20169;-80
2023/12/06 05:46:47;;;;;;;26.90;9.57;;;;;;;1.84;100.00;97650.91;4410303;32;20137;-81
2023/12/06 05:49:14;;;;;;;47.22;11.15;;;;;;;1.67;100.00;97634.16;4410601;32;20104;-81
2023/12/06 05:51:41;;;;;;;40.28;10.13;;;;;;;2.26;100.00;97639.22;4409800;32;20357;-80
2023/12/06 05:54:08;;;;;;;76.97;13.13;;;;;;;2.17;100.00;97631.72;4410244;32;20145;-81
2023/12/06 05:56:35;;;;;;;52.00;9.45;;;;;;;2.37;100.00;97627.16;4410447;32;20093;-81
2023/12/06 05:59:02;;;;;;;33.90;8.55;;;;;;;2.09;100.00;97634.38;4410506;32;20161;-80
2023/12/06 06:01:29;;;;;;;111.25;14.25;;;;;;;1.95;100.00;97638.87;4410215;32;20579;-81
2023/12/06 06:03:56;;;;;;;111.12;13.38;;;;;;;3.01;100.00;97641.28;4410401;32;20463;-80
2023/12/06 06:06:24;;;;;;;66.43;12.13;;;;;;;3.65;94.65;97644.22;4396820;32;20102;-81
2023/12/06 06:08:51;;;;;;;97.53;12.73;;;;;;;3.26;95.71;97639.09;4410067;32;22005;-81
2023/12/06 06:11:18;;;;;;;138.05;15.57;;;;;;;3.83;93.12;97651.50;4410377;32;20540;-82
2023/12/06 06:13:45;;;;;;;95.60;10.60;;;;;;;4.43;90.02;97644.97;4410466;32;20101;-82
2023/12/06 06:16:16;;;;;;;110.70;12.35;;;;;;;3.56;91.49;97654.63;4410078;32;20114;-82
2023/12/06 06:18:43;;;;;;;167.57;16.90;;;;;;;3.88;92.41;97656.47;4410397;32;20106;-83
2023/12/06 06:21:11;;;;;;;140.95;15.80;;;;;;;4.37;89.00;97651.09;4410404;32;20494;-82
2023/12/06 06:23:38;;;;;;;179.43;17.62;;;;;;;4.47;86.94;97649.16;4409927;32;20113;-83
2023/12/06 06:26:05;;;;;;;132.82;13.93;;;;;;;5.14;84.37;97647.38;4396620;32;20110;-82
2023/12/06 06:28:32;;;;;;;121.30;12.63;;;;;;;5.42;82.29;97661.09;4410403;32;20086;-83
2023/12/06 06:31:01;;;;;;;69.40;12.73;;;;;;;5.43;81.90;97657.66;4409866;32;20151;-83
2023/12/06 06:33:28;;;;;;;95.43;12.98;;;;;;;5.39;83.02;97668.84;4410285;32;20098;-82
2023/12/06 06:35:56;;;;;;;72.68;10.93;;;;;;;5.01;83.24;97667.34;4409840;32;20437;-83
2023/12/06 06:38:23;;;;;;;48.95;11.57;;;;;;;4.89;82.94;97670.19;4410543;32;20495;-83
2023/12/06 06:40:50;;;;;;;35.53;10.15;;;;;;;5.48;80.62;97670.31;4410286;32;20369;-83
2023/12/06 06:43:17;;;;;;;27.85;9.07;;;;;;;6.01;77.44;97678.16;4410029;32;20195;-83
2023/12/06 06:45:45;;;;;;;33.53;9.45;;;;;;;6.46;75.96;97680.16;4396717;32;20446;-83
2023/12/06 06:48:12;;;;;;;23.67;8.77;;;;;;;6.85;75.30;97678.88;4410502;32;20078;-83
2023/12/06 06:50:39;;;;;;;20.60;8.25;;;;;;;7.25;72.82;97678.34;4409759;32;20136;-83
2023/12/06 06:53:10;;;;;;;21.87;8.13;;;;;;;7.34;72.13;97681.47;4410291;32;20169;-83
2023/12/06 06:55:36;;;;;;;20.25;8.25;;;;;;;6.86;72.15;97675.41;4410264;32;20470;-84
2023/12/06 06:58:04;;;;;;;20.50;8.82;;;;;;;6.54;73.80;97676.47;4410000;32;20161;-84
2023/12/06 07:00:31;;;;;;;18.05;7.37;;;;;;;7.17;71.84;97680.31;4410112;32;20094;-83
2023/12/06 07:02:59;;;;;;;19.17;7.57;;;;;;;6.09;76.21;97683.91;4409926;32;20495;-83
2023/12/06 07:05:26;;;;;;;19.48;7.75;;;;;;;6.99;73.02;97675.00;4409723;32;20098;-84
2023/12/06 07:07:53;;;;;;;18.50;8.05;;;;;;;6.56;73.50;97671.28;4410251;32;20085;-84
2023/12/06 07:10:20;;;;;;;17.30;8.10;;;;;;;7.96;69.84;97674.00;4410012;32;20090;-83
2023/12/06 07:12:47;;;;;;;19.42;9.00;;;;;;;7.59;70.91;97674.56;4409720;32;20090;-83
2023/12/06 07:15:14;;;;;;;19.92;8.07;;;;;;;8.38;67.94;97666.38;4409849;32;20116;-83
2023/12/06 07:17:43;;;;;;;20.80;8.85;;;;;;;8.40;67.98;97669.75;4410048;32;20086;-82
2023/12/06 07:20:12;;;;;;;18.70;8.55;;;;;;;8.84;66.80;97666.25;4395985;32;20108;-83
2023/12/06 07:22:40;;;;;;;16.73;7.22;;;;;;;9.16;64.96;97670.88;4410112;32;20483;-82
2023/12/06 07:25:07;;;;;;;15.80;6.57;;;;;;;9.22;64.78;97675.75;4409146;32;20173;-81
2023/12/06 07:27:34;;;;;;;16.30;6.90;;;;;;;9.17;63.42;97658.84;4396400;32;20158;-80
2023/12/06 07:30:04;;;;;;;15.00;6.30;;;;;;;8.99;64.85;97666.44;4409834;32;20365;-78
2023/12/06 07:32:31;;;;;;;16.83;6.43;;;;;;;8.11;67.47;97667.44;4396427;32;20146;-80
2023/12/06 07:35:15;;;;;;;15.32;6.40;;;;;;;7.81;68.50;97677.16;4409892;32;20124;-81
2023/12/06 07:37:42;;;;;;;12.82;5.57;;;;;;;8.44;67.37;97670.47;4410053;32;20082;-81
2023/12/06 07:40:11;;;;;;;36.67;6.47;;;;;;;8.75;66.76;97675.19;4395585;32;20179;-82
2023/12/06 07:42:38;;;;;;;14.00;5.90;;;;;;;9.75;63.42;97669.97;4409715;32;20152;-81
2023/12/06 07:45:11;;;;;;;12.32;5.45;;;;;;;9.26;65.65;97674.72;4409644;32;20108;-81
2023/12/06 07:47:39;;;;;;;13.77;6.15;;;;;;;9.54;64.77;97678.66;4409459;32;20082;-81
2023/12/06 07:50:07;;;;;;;15.02;6.10;;;;;;;10.09;61.65;97679.56;4408403;32;20101;-82
2023/12/06 07:52:36;;;;;;;13.57;5.78;;;;;;;10.18;60.50;97686.03;4410235;32;20112;-81
2023/12/06 07:55:06;;;;;;;12.82;5.80;;;;;;;10.65;57.20;97673.47;4396805;32;20112;-83
2023/12/06 07:57:34;;;;;;;13.95;5.65;;;;;;;10.91;54.87;97679.94;4410568;32;20086;-82
2023/12/06 08:00:02;;;;;;;14.60;6.22;;;;;;;10.15;57.75;97678.44;4409622;32;20504;-83
2023/12/06 08:02:29;;;;;;;14.30;5.97;;;;;;;10.62;55.16;97678.78;4395992;32;20106;-83
2023/12/06 08:04:56;;;;;;;12.80;5.60;;;;;;;9.89;58.29;97676.22;4410124;32;20110;-83
2023/12/06 08:07:24;;;;;;;14.40;6.37;;;;;;;9.98;58.33;97681.78;4409739;32;20105;-83
2023/12/06 08:09:52;;;;;;;13.13;5.75;;;;;;;9.78;59.63;97675.00;4409987;32;20102;-83
2023/12/06 08:12:20;;;;;;;14.35;6.03;;;;;;;9.93;59.89;97670.03;4410324;32;20097;-83
2023/12/06 08:14:47;;;;;;;13.43;5.95;;;;;;;9.91;59.85;97671.84;4410509;32;20093;-83
2023/12/06 08:17:14;;;;;;;16.00;6.82;;;;;;;10.44;58.49;97669.37;4411230;32;20105;-83
2023/12/06 08:19:41;;;;;;;14.15;6.07;;;;;;;10.17;59.66;97671.47;4411178;32;20156;-83
2023/12/06 08:22:08;;;;;;;13.02;6.03;;;;;;;10.42;58.99;97673.78;4410844;32;20186;-83
2023/12/06 08:24:35;;;;;;;13.27;6.10;;;;;;;10.51;57.58;97678.47;4411034;32;20105;-82
2023/12/06 08:27:02;;;;;;;14.63;6.32;;;;;;;11.50;52.93;97677.81;4411108;32;20366;-83
2023/12/06 08:29:30;;;;;;;12.15;4.93;;;;;;;10.61;55.71;97682.25;4410693;32;20093;-83
2023/12/06 08:31:57;;;;;;;10.80;4.93;;;;;;;9.79;57.05;97674.09;4411177;32;20101;-83
2023/12/06 08:34:24;;;;;;;10.32;4.15;;;;;;;10.43;54.53;97660.78;4411034;32;20102;-83
2023/12/06 08:36:51;;;;;;;11.90;4.97;;;;;;;10.70;53.74;97683.56;4397259;32;20113;-83
2023/12/06 08:39:19;;;;;;;11.45;4.90;;;;;;;10.05;54.82;97683.19;4411069;32;20345;-83
2023/12/06 08:41:46;;;;;;;11.15;5.07;;;;;;;9.62;56.81;97678.31;4410980;32;20157;-83
2023/12/06 08:44:13;;;;;;;10.77;4.62;;;;;;;9.64;56.38;97682.50;4410601;32;20103;-83
2023/12/06 08:46:42;;;;;;;10.27;3.97;;;;;;;10.09;55.07;97683.87;4410934;32;20082;-83
2023/12/06 08:49:09;;;;;;;10.25;4.00;;;;;;;10.03;55.43;97690.16;4410723;32;20105;-83
2023/12/06 08:51:37;;;;;;;9.60;4.03;;;;;;;9.79;55.82;97684.41;4411095;32;20702;-84
2023/12/06 08:54:04;;;;;;;9.60;3.60;;;;;;;9.74;56.43;97683.75;4411175;32;20476;-83
2023/12/06 08:56:31;;;;;;;10.05;4.45;;;;;;;10.05;55.74;97682.34;4410480;32;20469;-84
2023/12/06 08:58:58;;;;;;;11.40;4.32;;;;;;;9.69;56.98;97688.28;4410850;32;20101;-84
2023/12/06 09:01:25;;;;;;;9.25;3.92;;;;;;;9.81;57.23;97687.72;4410964;32;20152;-84
2023/12/06 09:03:52;;;;;;;9.52;3.67;;;;;;;10.04;57.29;97696.16;4410495;32;20106;-83
2023/12/06 09:06:19;;;;;;;11.07;3.95;;;;;;;10.37;55.83;97699.75;4410709;32;20441;-83
2023/12/06 09:08:47;;;;;;;9.70;4.18;;;;;;;9.82;57.21;97691.97;4411046;32;20078;-84
2023/12/06 09:11:21;;;;;;;10.68;4.50;;;;;;;10.30;56.83;97694.97;4410346;32;20153;-84
2023/12/06 09:13:48;;;;;;;9.43;3.95;;;;;;;10.11;57.48;97694.97;4410771;32;20127;-84
2023/12/06 09:16:15;;;;;;;9.30;4.12;;;;;;;10.53;56.64;97693.88;4410671;32;20475;-83
2023/12/06 09:18:43;;;;;;;10.70;3.92;;;;;;;10.89;54.22;97699.81;4410550;32;20086;-83
2023/12/06 09:21:20;;;;;;;8.98;3.80;;;;;;;10.66;54.14;97698.38;4411046;32;20129;-84
2023/12/06 09:23:53;;;;;;;9.43;4.10;;;;;;;10.52;54.59;97700.75;4411585;32;20507;-83
2023/12/06 09:26:20;;;;;;;9.43;3.80;;;;;;;10.84;53.06;97701.78;4410234;32;20173;-84
2023/12/06 09:28:47;;;;;;;10.55;4.30;;;;;;;10.91;53.10;97702.31;4410662;32;20453;-83
2023/12/06 09:31:14;;;;;;;10.48;4.12;;;;;;;10.91;52.92;97699.75;4410310;32;20108;-83
2023/12/06 09:33:42;;;;;;;10.52;4.80;;;;;;;10.28;54.27;97694.19;4410689;32;20153;-83
2023/12/06 09:36:11;;;;;;;11.07;4.60;;;;;;;10.48;54.44;97693.25;4410539;32;20161;-84
2023/12/06 09:38:38;;;;;;;9.68;4.22;;;;;;;10.20;55.43;97693.69;4410373;32;20090;-83
2023/12/06 09:41:06;;;;;;;11.35;4.78;;;;;;;10.40;55.01;97693.63;4410668;32;20512;-84
2023/12/06 09:43:33;;;;;;;10.27;4.40;;;;;;;10.36;55.08;97682.63;4410921;32;20153;-83
2023/12/06 09:46:00;;;;;;;9.50;3.95;;;;;;;10.17;55.40;97693.84;4410210;32;20401;-82
2023/12/06 09:48:27;;;;;;;8.40;3.45;;;;;;;10.24;55.72;97687.53;4410823;32;20078;-82
2023/12/06 09:50:55;;;;;;;8.63;3.60;;;;;;;9.97;56.29;97690.44;4411411;32;20539;-83
2023/12/06 09:53:22;;;;;;;8.38;3.42;;;;;;;10.33;55.51;97682.78;4412485;32;20400;-82
2023/12/06 09:55:49;;;;;;;8.90;3.60;;;;;;;10.17;55.42;97676.63;4411210;32;20099;-83
2023/12/06 09:58:19;;;;;;;9.43;3.45;;;;;;;9.78;56.62;97685.31;4410802;32;20161;-83
2023/12/06 10:00:46;;;;;;;7.28;3.10;;;;;;;11.00;53.35;97683.81;4410456;32;20086;-83
2023/12/06 10:03:15;;;;;;;9.93;4.05;;;;;;;10.85;52.95;97669.94;4398489;32;20106;-84
2023/12/06 10:05:54;;;;;;;10.13;3.80;;;;;;;10.61;53.07;97681.44;4410393;32;20090;-85
2023/12/06 10:08:21;;;;;;;9.48;3.70;;;;;;;10.70;52.92;97681.81;4410233;32;20434;-84
2023/12/06 10:10:48;;;;;;;9.48;3.80;;;;;;;10.56;53.13;97676.50;4410383;32;20434;-84
2023/12/06 10:13:15;;;;;;;8.82;3.40;;;;;;;10.00;54.59;97674.84;4410288;32;20113;-82
2023/12/06 10:15:42;;;;;;;8.32;3.03;;;;;;;9.97;55.32;97677.53;4409052;32;20094;-84
2023/12/06 10:18:10;;;;;;;8.77;3.20;;;;;;;10.38;54.57;97677.37;4410410;32;20074;-84
2023/12/06 10:20:38;;;;;;;8.10;3.50;;;;;;;10.46;54.41;97671.88;4409982;32;20445;-84
2023/12/06 10:23:05;;;;;;;9.13;3.35;;;;;;;10.68;54.07;97672.50;4410354;32;20112;-82
2023/12/06 10:25:38;;;;;;;7.22;3.10;;;;;;;11.03;53.43;97668.16;4410029;32;20165;-83
2023/12/06 10:28:06;;;;;;;11.15;3.70;;;;;;;11.08;53.03;97668.78;4408375;32;20489;-85
2023/12/06 10:30:33;;;;;;;12.45;5.43;;;;;;;11.77;50.04;97667.75;4410199;32;20097;-85
2023/12/06 10:33:00;;;;;;;11.88;4.75;;;;;;;11.39;51.11;97670.63;4411010;32;20114;-86
2023/12/06 10:35:27;;;;;;;10.55;4.57;;;;;;;11.10;51.77;97672.09;4409938;32;20086;-86
2023/12/06 10:37:55;;;;;;;9.98;4.00;;;;;;;11.40;51.55;97666.28;4408655;32;20108;-86
2023/12/06 10:40:23;;;;;;;12.63;5.00;;;;;;;11.46;51.74;97660.78;4409132;32;20110;-85
2023/12/06 10:42:59;;;;;;;13.98;5.47;;;;;;;11.46;51.64;97658.19;4402702;32;20165;-86
2023/12/06 10:45:26;;;;;;;16.00;6.40;;;;;;;11.20;52.42;97657.81;4396211;32;20094;-85
2023/12/06 10:47:55;;;;;;;23.48;9.70;;;;;;;11.96;50.58;97659.88;4398274;32;20091;-85
2023/12/06 10:50:23;;;;;;;16.90;6.97;;;;;;;11.73;50.24;97661.91;4380845;32;20154;-86
2023/12/06 10:52:50;;;;;;;15.27;5.78;;;;;;;11.27;51.54;97658.31;4393929;32;20124;-86
2023/12/06 10:55:19;;;;;;;12.85;4.75;;;;;;;10.96;52.15;97659.06;4381134;32;20607;-85
2023/12/06 10:57:47;;;;;;;11.90;4.43;;;;;;;11.05;52.37;97656.00;4381931;32;20136;-85
2023/12/06 11:00:14;;;;;;;9.60;3.75;;;;;;;11.49;51.84;97650.31;4381177;32;20173;-85
2023/12/06 11:02:41;;;;;;;8.30;3.40;;;;;;;11.56;51.81;97659.38;4380925;32;20124;-86
2023/12/06 11:05:11;;;;;;;9.60;3.62;;;;;;;12.22;49.63;97653.25;4395214;32;20169;-85
2023/12/06 11:07:57;;;;;;;8.18;3.00;;;;;;;12.00;49.35;97651.84;4369229;32;20149;-86
2023/12/06 11:10:50;;;;;;;7.03;2.95;;;;;;;11.50;50.76;97652.81;4394803;32;20120;-85
2023/12/06 11:13:23;;;;;;;7.75;3.10;;;;;;;11.14;51.81;97646.94;4394991;32;20102;-86
2023/12/06 11:16:13;;;;;;;6.12;2.72;;;;;;;11.01;52.32;97647.56;4394792;32;20166;-85
2023/12/06 11:18:47;;;;;;;7.80;3.00;;;;;;;11.08;52.44;97645.53;4394683;32;20087;-85
2023/12/06 11:21:15;;;;;;;7.30;2.97;;;;;;;11.29;52.00;97639.25;4381357;32;20126;-85
2023/12/06 11:23:42;;;;;;;7.32;2.80;;;;;;;11.10;52.19;97635.12;4394555;32;20662;-86
2023/12/06 11:26:10;;;;;;;7.82;3.20;;;;;;;10.98;52.86;97631.41;4381283;32;20133;-84
2023/12/06 11:28:41;;;;;;;7.57;3.17;;;;;;;10.35;53.78;97628.53;4394879;32;20177;-87